Ljubecna, Slovenia

06:01 AM CEST on oktober 17, 2017 (GMT +0200)
Cesta na Dobrovo | | Change Station

Viš 797 ft 46.25 °N, 15.27 °E | Updated 24 minutes ago

Delno oblacno
Delno oblacno
45.9 °F
Feels Like 46 °F
N
0.6
Veter Spremenljivo Veter od Vzhod
Gusts 1.2 mph

Danes
High -- | Low -- °F
--% Chance of Precip.
Yesterday
High -- | Low -- °F
Precip. -- v
Zračni tlak 30.30 v
Vidljivost 0.1 milje
Oblaki
Občutek zaradi vetra 46 °F
Rosišče 44 °F
Vlažnost 92%
Padavine 0.00 v
Snow Depth Not available.
7:18 AM 6:08 PM
Pojemajoči krajec, 7% visible
METAR LJMB 170330Z AUTO 31001KT 0150 R32/0700N BCFG VV001 07/07 Q1026
Zračni tlak 30.30 v
Vidljivost 0.1 milje
Oblaki
Občutek zaradi vetra 46 °F
Rosišče 44 °F
Vlažnost 92%
Padavine 0.00 v
Snow Depth Not available.
7:18 AM 6:08 PM
Pojemajoči krajec, 7% visible
METAR LJMB 170330Z AUTO 31001KT 0150 R32/0700N BCFG VV001 07/07 Q1026

Get Severe Weather Alerts

Thanks for signing up!

Be on the lookout for a verification email in your inbox.

You'll start receiving the daily forecast at 6 AM.

×

10-Day Weather Forecast

×

Almanac

Astronomija

Oct. 17, 2017 Rise Set
Actual Time
Civil Twilight
Nautical Twilight
Astronomical Twilight
Moon
Length Of Visible Light
Dolžina dneva
Tomorrow will be .
, % of the Moon is Illuminated

Današnji ekstremi

Country Highs Country Lows

Community

WunderPhotos

Category 6

Welcome to Category 6. This is the collective home for Weather Underground's featured writeups by Dr. Jeff Masters (right), Bob Henson (left), Chris Burt, and other regular contributors.

Nearby

Air Quality

  Air Quality AQ Index Pollutant
Not available.

Snow Depth

Station Depth Višina

Earthquake Activity

City Distance Mag. Time & Date
Minimum magnitude displayed is 2.5.

Coastal Water Temperatures

Mesto Temperatura

Stations

Nearby Weather Stations

Station Location Temp Občutek zaradi vetra Rosišče Vlažnost Veter Precip. Viš Obnovljeno Type